Time;durP1;ratioP1;P1;durP2;ratioP2;P2;SDS_P1;SDS_P2;PMS_P1;PMS_P2;Temp;Humidity;BMP_temperature;BMP_pressure;BME280_temperature;BME280_humidity;BME280_pressure;Samples;Min_cycle;Max_cycle;Signal;HPM_P1;HPM_P2
2020/12/22 00:01:41;;;;;;;3.63;2.60;;;7.10;99.90;;;;;;5074186;28;20227;-80
2020/12/22 00:04:07;;;;;;;2.47;1.93;;;7.10;99.90;;;;;;5075396;28;20220;-79
2020/12/22 00:06:33;;;;;;;2.67;2.13;;;7.00;99.90;;;;;;5075615;28;20238;-81
2020/12/22 00:08:58;;;;;;;2.50;2.00;;;7.00;99.90;;;;;;5083405;28;20235;-80
2020/12/22 00:11:24;;;;;;;6.03;2.73;;;6.90;99.90;;;;;;5075149;28;20549;-78
2020/12/22 00:13:49;;;;;;;3.03;2.03;;;6.90;99.90;;;;;;5074235;28;20213;-78
2020/12/22 00:16:15;;;;;;;2.50;1.67;;;6.90;99.90;;;;;;5073159;28;20228;-81
2020/12/22 00:18:41;;;;;;;3.50;2.27;;;6.90;99.90;;;;;;5073477;28;20189;-80
2020/12/22 00:21:07;;;;;;;2.87;2.23;;;6.80;99.90;;;;;;5074350;28;20220;-80
2020/12/22 00:23:32;;;;;;;5.33;2.27;;;6.80;99.90;;;;;;5074151;28;20247;-80
2020/12/22 00:25:58;;;;;;;2.93;2.33;;;6.80;99.90;;;;;;5075492;28;20186;-80
2020/12/22 00:28:23;;;;;;;3.40;2.63;;;6.80;99.90;;;;;;5075264;28;20238;-80
2020/12/22 00:30:49;;;;;;;2.80;2.43;;;6.80;99.90;;;;;;5076665;28;20218;-80
2020/12/22 00:33:15;;;;;;;1.63;1.43;;;6.80;99.90;;;;;;5074216;28;20226;-80
2020/12/22 00:35:41;;;;;;;4.20;3.23;;;6.80;99.90;;;;;;5073024;28;20284;-80
2020/12/22 00:38:06;;;;;;;17.17;10.43;;;6.80;99.90;;;;;;5075625;28;20367;-80
2020/12/22 00:40:32;;;;;;;4.73;3.47;;;6.80;99.90;;;;;;5073484;28;20192;-78
2020/12/22 00:43:02;;;;;;;3.60;2.93;;;6.90;99.90;;;;;;5073373;28;20227;-80
2020/12/22 00:45:30;;;;;;;3.53;3.23;;;6.90;99.90;;;;;;5072375;28;20181;-80
2020/12/22 00:47:56;;;;;;;5.13;4.63;;;6.90;99.90;;;;;;5074397;28;20192;-80
2020/12/22 00:50:22;;;;;;;3.37;2.67;;;6.80;99.90;;;;;;5073863;28;20219;-79
2020/12/22 00:52:47;;;;;;;4.97;2.40;;;6.80;99.90;;;;;;5075054;28;20211;-79
2020/12/22 00:55:13;;;;;;;3.23;2.93;;;6.90;99.90;;;;;;5074348;28;20177;-81
2020/12/22 00:57:38;;;;;;;3.53;3.13;;;6.90;99.90;;;;;;5074467;28;20260;-81
2020/12/22 01:00:06;;;;;;;7.93;5.27;;;6.90;99.90;;;;;;5073859;28;20231;-80
2020/12/22 01:02:34;;;;;;;2.40;2.20;;;6.90;99.90;;;;;;5072579;28;20302;-80
2020/12/22 01:04:59;;;;;;;3.70;3.40;;;6.90;99.90;;;;;;5081561;28;20189;-80
2020/12/22 01:07:25;;;;;;;1.90;1.70;;;6.90;99.90;;;;;;5075217;28;20307;-80
2020/12/22 01:09:50;;;;;;;2.30;2.10;;;6.90;99.90;;;;;;5073856;28;20193;-80
2020/12/22 01:12:16;;;;;;;2.77;2.57;;;6.90;99.90;;;;;;5075560;28;20209;-80
2020/12/22 01:14:42;;;;;;;2.63;2.40;;;6.90;99.90;;;;;;5074230;28;20184;-80
2020/12/22 01:17:07;;;;;;;3.20;2.50;;;7.00;99.90;;;;;;5073254;28;20559;-80
2020/12/22 01:19:33;;;;;;;2.23;1.60;;;7.00;99.90;;;;;;5075939;28;20258;-80
2020/12/22 01:21:58;;;;;;;1.70;1.60;;;7.00;99.90;;;;;;5073370;28;20209;-81
2020/12/22 01:24:24;;;;;;;2.57;2.27;;;6.90;99.90;;;;;;5073719;28;20277;-82
2020/12/22 01:26:50;;;;;;;1.97;1.67;;;7.00;99.90;;;;;;5073017;28;20646;-80
2020/12/22 01:29:16;;;;;;;1.60;1.13;;;7.00;99.90;;;;;;5077549;28;20193;-80
2020/12/22 01:31:42;;;;;;;1.13;1.00;;;7.00;99.90;;;;;;5078231;28;20204;-81
2020/12/22 01:34:07;;;;;;;1.37;1.00;;;7.00;99.90;;;;;;5076466;28;20197;-80
2020/12/22 01:36:33;;;;;;;1.17;1.07;;;7.00;99.90;;;;;;5076506;28;20270;-80
2020/12/22 01:38:59;;;;;;;1.07;0.97;;;7.00;99.90;;;;;;5077990;28;20650;-81
2020/12/22 01:41:24;;;;;;;3.90;1.30;;;7.00;99.90;;;;;;5077398;28;20197;-80
2020/12/22 01:44:12;;;;;;;0.77;0.77;;;7.00;99.90;;;;;;5077924;28;20196;-80
2020/12/22 01:46:43;;;;;;;0.60;0.60;;;7.10;99.90;;;;;;5076855;28;20315;-80
2020/12/22 01:49:29;;;;;;;0.70;0.70;;;7.10;99.90;;;;;;5079715;28;20192;-80
2020/12/22 01:51:56;;;;;;;0.60;0.60;;;7.10;99.90;;;;;;5076711;28;20227;-80
2020/12/22 01:54:25;;;;;;;0.73;0.73;;;7.10;99.90;;;;;;5078513;28;20242;-81
2020/12/22 01:56:51;;;;;;;0.60;0.43;;;7.20;99.90;;;;;;5076814;28;20697;-80
2020/12/22 01:59:17;;;;;;;0.43;0.43;;;7.20;99.90;;;;;;5077280;28;20207;-81
2020/12/22 02:01:43;;;;;;;0.50;0.40;;;7.30;99.90;;;;;;5076297;28;20771;-81
2020/12/22 02:04:10;;;;;;;0.47;0.40;;;7.30;99.90;;;;;;5078464;28;20216;-80
2020/12/22 02:06:36;;;;;;;0.40;0.40;;;7.30;99.90;;;;;;5077275;28;20219;-80
2020/12/22 02:09:06;;;;;;;0.30;0.30;;;7.30;99.90;;;;;;5076693;28;20190;-80
2020/12/22 02:11:34;;;;;;;0.13;0.13;;;7.50;99.90;;;;;;5077772;28;20619;-80
2020/12/22 02:14:01;;;;;;;0.20;0.20;;;7.50;99.90;;;;;;5077177;28;20768;-80
2020/12/22 02:16:27;;;;;;;0.40;0.27;;;7.60;99.90;;;;;;5076460;28;20189;-80
2020/12/22 02:18:54;;;;;;;0.20;0.20;;;7.70;99.90;;;;;;5075753;28;20192;-80
2020/12/22 02:21:21;;;;;;;0.97;0.23;;;7.70;99.90;;;;;;5075249;28;20279;-80
2020/12/22 02:23:48;;;;;;;0.30;0.30;;;7.80;99.90;;;;;;5077503;28;20203;-80
2020/12/22 02:26:15;;;;;;;0.20;0.20;;;7.80;99.90;;;;;;5078195;28;20224;-81
2020/12/22 02:28:41;;;;;;;0.27;0.20;;;7.90;99.90;;;;;;5085745;28;20197;-81
2020/12/22 02:31:06;;;;;;;0.20;0.20;;;8.10;99.90;;;;;;5077841;28;20235;-84
2020/12/22 02:33:32;;;;;;;0.13;0.13;;;8.00;99.90;;;;;;5077401;28;20217;-81
2020/12/22 02:35:57;;;;;;;0.20;0.20;;;8.10;99.90;;;;;;5074971;28;20189;-80
2020/12/22 02:38:23;;;;;;;0.20;0.20;;;8.10;99.90;;;;;;5076531;28;20193;-82
2020/12/22 02:40:49;;;;;;;0.17;0.10;;;8.10;99.90;;;;;;5077266;28;20280;-80
2020/12/22 02:43:15;;;;;;;0.20;0.20;;;8.10;99.90;;;;;;5078152;28;20709;-80
2020/12/22 02:45:42;;;;;;;0.20;0.20;;;8.10;99.90;;;;;;5081671;28;20242;-81
2020/12/22 02:48:09;;;;;;;0.20;0.20;;;8.20;99.90;;;;;;5079633;28;20561;-80
2020/12/22 02:50:35;;;;;;;0.10;0.10;;;8.20;99.90;;;;;;5076766;28;20269;-82
2020/12/22 02:53:01;;;;;;;0.20;0.20;;;8.30;99.90;;;;;;5077776;28;20228;-82
2020/12/22 02:55:26;;;;;;;2.83;0.43;;;8.50;99.90;;;;;;5077651;28;20185;-80
2020/12/22 02:57:52;;;;;;;0.10;0.10;;;8.50;99.90;;;;;;5078663;28;21220;-81
2020/12/22 03:00:18;;;;;;;0.10;0.10;;;8.60;99.90;;;;;;5075130;28;20186;-80
2020/12/22 03:02:44;;;;;;;0.10;0.10;;;8.70;99.90;;;;;;5077774;28;20228;-81
2020/12/22 03:05:10;;;;;;;0.20;0.20;;;8.80;99.90;;;;;;5079488;28;20305;-81
2020/12/22 03:07:35;;;;;;;0.10;0.10;;;8.90;99.90;;;;;;5079719;28;20205;-82
2020/12/22 03:10:01;;;;;;;0.20;0.20;;;8.80;99.90;;;;;;5080185;28;20216;-81
2020/12/22 03:12:26;;;;;;;0.20;0.20;;;8.90;99.90;;;;;;5080163;28;20216;-81
2020/12/22 03:14:52;;;;;;;0.50;0.33;;;8.90;99.90;;;;;;5080754;28;20198;-80
2020/12/22 03:17:18;;;;;;;0.13;0.13;;;8.90;99.90;;;;;;5080145;28;20540;-82
2020/12/22 03:19:43;;;;;;;0.30;0.30;;;9.00;99.90;;;;;;5079204;28;20189;-82
2020/12/22 03:22:09;;;;;;;2.50;0.20;;;9.00;99.90;;;;;;5080070;28;20209;-82
2020/12/22 03:24:35;;;;;;;0.20;0.20;;;9.20;99.90;;;;;;5082279;28;20188;-83
2020/12/22 03:27:00;;;;;;;0.13;0.13;;;9.20;99.90;;;;;;5081068;28;20189;-82
2020/12/22 03:29:26;;;;;;;0.20;0.20;;;9.30;99.90;;;;;;5082371;28;20215;-81
2020/12/22 03:31:51;;;;;;;0.30;0.30;;;9.30;99.90;;;;;;5080827;28;20205;-79
2020/12/22 03:34:17;;;;;;;0.20;0.20;;;9.40;99.90;;;;;;5080878;28;20673;-82
2020/12/22 03:36:43;;;;;;;0.20;0.20;;;9.30;99.90;;;;;;5081159;28;21124;-82
2020/12/22 03:39:09;;;;;;;0.20;0.20;;;9.40;99.90;;;;;;5079241;28;20186;-80
2020/12/22 03:41:35;;;;;;;0.30;0.20;;;9.50;99.90;;;;;;5083931;28;20249;-81
2020/12/22 03:44:00;;;;;;;0.30;0.30;;;9.50;99.90;;;;;;5082237;28;20658;-80
2020/12/22 03:46:26;;;;;;;0.20;0.20;;;9.50;99.90;;;;;;5081369;28;20189;-79
2020/12/22 03:48:52;;;;;;;0.20;0.20;;;9.60;99.90;;;;;;5080538;28;20261;-81
2020/12/22 03:51:18;;;;;;;0.40;0.20;;;9.70;99.90;;;;;;5079460;28;20632;-81
2020/12/22 03:53:43;;;;;;;0.10;0.10;;;9.90;99.90;;;;;;5080441;28;20256;-82
2020/12/22 03:56:09;;;;;;;0.10;0.10;;;10.00;99.90;;;;;;5081027;28;20189;-81
2020/12/22 03:58:34;;;;;;;0.10;0.10;;;9.90;99.90;;;;;;5077744;28;20193;-79
2020/12/22 04:01:00;;;;;;;0.20;0.20;;;10.00;99.90;;;;;;5081792;28;20220;-80
2020/12/22 04:03:26;;;;;;;0.20;0.20;;;10.10;99.90;;;;;;5079934;28;20252;-81
2020/12/22 04:05:51;;;;;;;0.30;0.27;;;10.20;99.90;;;;;;5080181;28;20267;-81
2020/12/22 04:08:18;;;;;;;0.20;0.20;;;10.20;99.90;;;;;;5083289;28;20189;-81
2020/12/22 04:10:43;;;;;;;0.20;0.20;;;10.20;99.90;;;;;;5080416;28;20188;-81
2020/12/22 04:13:09;;;;;;;0.10;0.10;;;10.20;99.90;;;;;;5086477;28;20200;-81
2020/12/22 04:15:35;;;;;;;0.20;0.20;;;10.20;99.90;;;;;;5080905;28;20185;-81
2020/12/22 04:18:00;;;;;;;0.10;0.10;;;10.30;99.90;;;;;;5080733;28;20644;-79
2020/12/22 04:20:26;;;;;;;0.27;0.27;;;10.40;99.90;;;;;;5079399;28;20186;-78
2020/12/22 04:22:52;;;;;;;0.20;0.20;;;10.40;99.90;;;;;;5081303;28;20211;-80
2020/12/22 04:25:17;;;;;;;0.20;0.20;;;10.40;99.90;;;;;;5080795;28;20252;-81
2020/12/22 04:27:43;;;;;;;0.20;0.20;;;10.50;99.90;;;;;;5079880;28;20186;-83
2020/12/22 04:30:08;;;;;;;0.10;0.10;;;10.50;99.90;;;;;;5079751;28;20200;-80
2020/12/22 04:32:34;;;;;;;0.10;0.10;;;10.50;99.90;;;;;;5080691;28;20223;-80
2020/12/22 04:34:59;;;;;;;0.20;0.20;;;10.60;99.90;;;;;;5079922;28;20181;-79
2020/12/22 04:37:25;;;;;;;0.20;0.20;;;10.50;99.90;;;;;;5079448;28;20692;-81
2020/12/22 04:39:51;;;;;;;0.20;0.20;;;10.60;99.90;;;;;;5078444;28;21325;-80
2020/12/22 04:42:20;;;;;;;0.10;0.10;;;10.70;99.90;;;;;;5081622;28;20356;-80
2020/12/22 04:44:47;;;;;;;0.20;0.20;;;10.60;99.90;;;;;;5077246;28;20194;-79
2020/12/22 04:47:16;;;;;;;0.10;0.10;;;10.60;99.90;;;;;;5079043;28;20192;-79
2020/12/22 04:49:43;;;;;;;0.10;0.10;;;10.70;99.90;;;;;;5076930;28;20189;-82
2020/12/22 04:52:09;;;;;;;0.20;0.20;;;10.70;99.90;;;;;;5077429;28;20324;-81
2020/12/22 04:54:37;;;;;;;0.20;0.20;;;10.70;99.90;;;;;;5078656;28;20181;-79
2020/12/22 04:57:04;;;;;;;0.10;0.10;;;10.70;99.90;;;;;;5079544;28;20192;-80
2020/12/22 04:59:30;;;;;;;0.30;0.30;;;10.80;99.90;;;;;;5076313;28;20177;-80
2020/12/22 05:01:57;;;;;;;0.13;0.13;;;10.80;99.90;;;;;;5077612;28;20266;-81
2020/12/22 05:04:23;;;;;;;0.20;0.20;;;10.80;99.90;;;;;;5080548;28;20188;-80
2020/12/22 05:06:49;;;;;;;0.23;0.20;;;10.70;99.90;;;;;;5079068;28;20242;-79
2020/12/22 05:09:14;;;;;;;0.10;0.10;;;10.70;99.90;;;;;;5079109;28;20263;-80
2020/12/22 05:11:40;;;;;;;0.10;0.10;;;10.60;99.90;;;;;;5078822;28;20307;-79
2020/12/22 05:14:06;;;;;;;0.20;0.10;;;10.50;99.90;;;;;;5080429;28;20565;-81
2020/12/22 05:16:36;;;;;;;0.10;0.10;;;10.60;99.90;;;;;;5077997;28;20219;-81
2020/12/22 05:19:03;;;;;;;0.20;0.20;;;10.60;99.90;;;;;;5077823;28;20186;-80
2020/12/22 05:21:35;;;;;;;0.10;0.10;;;10.70;99.90;;;;;;5081329;28;20228;-80
2020/12/22 05:24:01;;;;;;;0.10;0.10;;;10.70;99.90;;;;;;5079276;28;20666;-82
2020/12/22 05:26:32;;;;;;;0.30;0.30;;;10.70;99.90;;;;;;5081528;28;20189;-79
2020/12/22 05:29:10;;;;;;;0.13;0.13;;;10.70;99.90;;;;;;5079319;28;20186;-80
2020/12/22 05:31:50;;;;;;;0.23;0.20;;;10.80;99.90;;;;;;5080042;28;20796;-80
2020/12/22 05:34:17;;;;;;;0.40;0.37;;;10.80;99.90;;;;;;5079171;28;20252;-79
2020/12/22 05:36:44;;;;;;;0.10;0.10;;;10.90;99.90;;;;;;5078240;28;20187;-81
2020/12/22 05:39:11;;;;;;;0.10;0.10;;;10.80;99.90;;;;;;5081856;28;20181;-82
2020/12/22 05:41:37;;;;;;;0.10;0.10;;;11.00;99.90;;;;;;5081335;28;20185;-81
2020/12/22 05:44:04;;;;;;;0.20;0.20;;;11.00;99.90;;;;;;5080408;28;20193;-81
2020/12/22 05:46:32;;;;;;;0.10;0.10;;;11.10;99.90;;;;;;5079242;28;20188;-81
2020/12/22 05:49:06;;;;;;;0.10;0.10;;;11.20;99.90;;;;;;5087042;28;20241;-79
2020/12/22 05:51:32;;;;;;;0.20;0.20;;;11.10;99.90;;;;;;5087266;28;20188;-81
2020/12/22 05:54:08;;;;;;;0.20;0.20;;;11.20;99.90;;;;;;5078290;28;20243;-79
2020/12/22 05:56:37;;;;;;;0.20;0.20;;;11.20;99.90;;;;;;5078499;28;20788;-80
2020/12/22 05:59:03;;;;;;;0.20;0.20;;;11.20;99.90;;;;;;5086701;28;20650;-79
2020/12/22 06:01:31;;;;;;;0.93;0.50;;;11.20;99.90;;;;;;5079304;28;20346;-81
2020/12/22 06:03:58;;;;;;;0.20;0.20;;;11.20;99.90;;;;;;5079664;28;20192;-80
2020/12/22 06:06:28;;;;;;;0.20;0.20;;;11.20;99.90;;;;;;5076913;28;20189;-79
2020/12/22 06:08:55;;;;;;;0.20;0.20;;;11.20;99.90;;;;;;5080719;28;20788;-79
2020/12/22 06:11:20;;;;;;;0.40;0.30;;;11.20;99.90;;;;;;5081466;28;20185;-83
2020/12/22 06:13:47;;;;;;;0.20;0.20;;;11.20;99.90;;;;;;5077536;28;20212;-83
2020/12/22 06:16:18;;;;;;;0.10;0.10;;;11.30;99.90;;;;;;5077771;28;20197;-79
2020/12/22 06:18:46;;;;;;;0.20;0.20;;;11.30;99.90;;;;;;5081170;28;20254;-81
2020/12/22 06:21:15;;;;;;;0.20;0.20;;;11.30;99.90;;;;;;5079174;28;20291;-80
2020/12/22 06:23:41;;;;;;;0.10;0.10;;;11.30;99.90;;;;;;5080915;28;21292;-81
2020/12/22 06:26:06;;;;;;;0.10;0.10;;;11.40;99.90;;;;;;5080226;28;20185;-81
2020/12/22 06:28:32;;;;;;;0.20;0.20;;;11.40;99.90;;;;;;5079907;28;20590;-81
2020/12/22 06:30:58;;;;;;;0.10;0.10;;;11.40;99.90;;;;;;5079325;28;20181;-82
2020/12/22 06:33:27;;;;;;;0.10;0.10;;;11.40;99.90;;;;;;5080127;28;20217;-81
2020/12/22 06:36:13;;;;;;;0.13;0.13;;;11.40;99.90;;;;;;5079110;28;20197;-80
2020/12/22 06:38:53;;;;;;;0.10;0.10;;;11.40;99.90;;;;;;5078079;28;20189;-77
2020/12/22 06:41:34;;;;;;;0.10;0.10;;;11.50;99.90;;;;;;5080425;28;20256;-81
2020/12/22 06:44:18;;;;;;;0.13;0.13;;;11.50;99.90;;;;;;5089375;28;21128;-81
2020/12/22 06:46:51;;;;;;;0.20;0.20;;;11.50;99.90;;;;;;5080144;28;20181;-81
2020/12/22 06:49:17;;;;;;;0.10;0.10;;;11.50;99.90;;;;;;5079548;28;20203;-80
2020/12/22 06:51:42;;;;;;;0.20;0.20;;;11.50;99.90;;;;;;5078532;28;20212;-79
2020/12/22 06:54:14;;;;;;;0.13;0.13;;;11.50;99.90;;;;;;5078920;28;20285;-82
2020/12/22 06:56:45;;;;;;;0.13;0.13;;;11.40;99.90;;;;;;5082102;28;20208;-82
2020/12/22 06:59:11;;;;;;;0.10;0.10;;;11.50;99.90;;;;;;5078873;28;20203;-82
2020/12/22 07:01:46;;;;;;;0.20;0.20;;;11.50;99.90;;;;;;5077604;28;20244;-82
2020/12/22 07:04:23;;;;;;;0.60;0.30;;;11.50;99.90;;;;;;5078853;28;20195;-79
2020/12/22 07:07:02;;;;;;;0.20;0.20;;;11.50;99.90;;;;;;5076526;28;20209;-82
2020/12/22 07:09:35;;;;;;;0.20;0.20;;;11.50;99.90;;;;;;5081130;28;20256;-82
2020/12/22 07:12:10;;;;;;;0.13;0.13;;;11.50;99.90;;;;;;5077976;28;20217;-81
2020/12/22 07:14:41;;;;;;;0.30;0.30;;;11.60;99.90;;;;;;5078625;28;20187;-81
2020/12/22 07:17:07;;;;;;;0.10;0.10;;;11.60;99.90;;;;;;5081542;28;20232;-81
2020/12/22 07:19:34;;;;;;;0.20;0.20;;;11.60;99.90;;;;;;5082862;28;20197;-82
2020/12/22 07:22:05;;;;;;;0.20;0.20;;;11.60;99.90;;;;;;5078381;28;20645;-82
2020/12/22 07:24:34;;;;;;;0.20;0.20;;;11.60;99.90;;;;;;5079232;28;20182;-79
2020/12/22 07:27:00;;;;;;;0.20;0.20;;;11.60;99.90;;;;;;5084210;28;20195;-83
2020/12/22 07:29:26;;;;;;;0.20;0.20;;;11.60;99.90;;;;;;5069518;28;20688;-81
2020/12/22 07:31:52;;;;;;;0.20;0.20;;;11.60;99.90;;;;;;5079730;28;20205;-81
2020/12/22 07:34:19;;;;;;;0.40;0.40;;;11.60;99.90;;;;;;5077825;28;21251;-82
2020/12/22 07:36:46;;;;;;;0.20;0.20;;;11.60;99.90;;;;;;5077860;28;20640;-81
2020/12/22 07:39:22;;;;;;;0.20;0.20;;;11.60;99.90;;;;;;5077627;28;20265;-81
2020/12/22 07:41:52;;;;;;;0.20;0.20;;;11.50;99.90;;;;;;5078793;28;20205;-80
2020/12/22 07:44:22;;;;;;;0.20;0.20;;;11.50;99.90;;;;;;5078331;28;20220;-76
2020/12/22 07:46:52;;;;;;;0.20;0.20;;;11.50;99.90;;;;;;5076365;28;20682;-79
2020/12/22 07:49:18;;;;;;;0.40;0.30;;;11.50;99.90;;;;;;5077210;28;20185;-82
2020/12/22 07:51:46;;;;;;;0.30;0.30;;;11.60;99.90;;;;;;5077016;28;20747;-79
2020/12/22 07:54:13;;;;;;;0.20;0.20;;;11.60;99.90;;;;;;5076481;28;20213;-80
2020/12/22 07:56:41;;;;;;;0.20;0.20;;;11.70;99.90;;;;;;5077775;28;20203;-79
2020/12/22 07:59:09;;;;;;;0.40;0.40;;;11.70;99.90;;;;;;5080728;28;20551;-78
2020/12/22 08:01:50;;;;;;;0.40;0.40;;;11.80;99.90;;;;;;5078881;28;20672;-81
2020/12/22 08:04:23;;;;;;;0.33;0.30;;;11.70;99.90;;;;;;5079319;28;20239;-81
2020/12/22 08:07:00;;;;;;;0.30;0.30;;;11.70;99.90;;;;;;5090892;28;20203;-80
2020/12/22 08:09:37;;;;;;;0.63;0.30;;;11.70;99.90;;;;;;5083118;28;21077;-82
2020/12/22 08:12:05;;;;;;;0.20;0.20;;;11.80;99.90;;;;;;5089137;28;20767;-82
2020/12/22 08:14:37;;;;;;;0.28;0.28;;;11.80;99.90;;;;;;5076695;28;20177;-78
2020/12/22 08:17:08;;;;;;;0.30;0.30;;;11.80;99.90;;;;;;5075671;28;20579;-79
2020/12/22 08:19:38;;;;;;;0.20;0.20;;;11.80;99.90;;;;;;5074968;28;20188;-77
2020/12/22 08:22:05;;;;;;;0.45;0.20;;;11.80;99.90;;;;;;5075638;28;20221;-78
2020/12/22 08:24:33;;;;;;;0.30;0.30;;;11.80;99.90;;;;;;5074698;28;20280;-79
2020/12/22 08:26:59;;;;;;;0.20;0.20;;;11.90;99.90;;;;;;5066502;28;20181;-79
2020/12/22 08:29:27;;;;;;;0.30;0.30;;;11.90;99.90;;;;;;5084294;28;20186;-80
2020/12/22 08:31:55;;;;;;;0.25;0.25;;;11.90;99.90;;;;;;5077026;28;20204;-80
2020/12/22 08:34:21;;;;;;;0.30;0.25;;;11.90;99.90;;;;;;5074517;28;20236;-82
2020/12/22 08:36:47;;;;;;;0.63;0.32;;;11.90;99.90;;;;;;5077510;28;20193;-82
2020/12/22 08:39:16;;;;;;;0.63;0.63;;;11.90;99.90;;;;;;5080231;28;20181;-79
2020/12/22 08:41:43;;;;;;;0.40;0.40;;;11.80;99.90;;;;;;5088065;28;20210;-80
2020/12/22 08:44:10;;;;;;;0.40;0.40;;;11.80;99.90;;;;;;5077246;28;20192;-78
2020/12/22 08:46:37;;;;;;;0.40;0.40;;;11.70;99.90;;;;;;5074193;28;20196;-78
2020/12/22 08:49:11;;;;;;;0.40;0.40;;;11.70;99.90;;;;;;5072622;28;20192;-77
2020/12/22 08:51:37;;;;;;;0.53;0.53;;;11.70;99.90;;;;;;5070841;28;20717;-78
2020/12/22 08:54:03;;;;;;;1.73;0.60;;;11.80;99.90;;;;;;5074603;28;20226;-79
2020/12/22 08:56:29;;;;;;;2.73;0.70;;;11.80;99.90;;;;;;5069990;28;20181;-82
2020/12/22 08:59:05;;;;;;;0.30;0.30;;;11.80;99.90;;;;;;5073777;28;20192;-81
2020/12/22 09:01:43;;;;;;;0.30;0.30;;;11.70;99.90;;;;;;5075950;28;20207;-82
2020/12/22 09:04:10;;;;;;;0.30;0.30;;;11.80;99.90;;;;;;5072551;28;20280;-85
2020/12/22 09:06:41;;;;;;;0.30;0.30;;;11.80;99.90;;;;;;5072098;28;20185;-79
2020/12/22 09:09:16;;;;;;;0.30;0.30;;;11.80;99.90;;;;;;5069753;28;20185;-81
2020/12/22 09:11:42;;;;;;;0.30;0.30;;;11.90;99.90;;;;;;5074598;28;20560;-78
2020/12/22 09:14:11;;;;;;;0.32;0.32;;;11.90;99.90;;;;;;5072011;28;20216;-84
2020/12/22 09:16:46;;;;;;;0.50;0.50;;;12.10;99.90;;;;;;5076397;28;20182;-81
2020/12/22 09:19:12;;;;;;;0.52;0.32;;;12.20;99.90;;;;;;5082866;28;20191;-77
2020/12/22 09:21:38;;;;;;;0.60;0.30;;;12.20;99.90;;;;;;5073977;28;20188;-80
2020/12/22 09:24:04;;;;;;;0.50;0.50;;;12.10;99.90;;;;;;5074240;28;20239;-77
2020/12/22 09:26:30;;;;;;;0.33;0.33;;;12.10;99.90;;;;;;5072429;28;20981;-80
2020/12/22 09:28:55;;;;;;;0.85;0.55;;;12.10;99.90;;;;;;5073475;28;20193;-81
2020/12/22 09:31:25;;;;;;;0.30;0.30;;;12.10;99.90;;;;;;5074123;28;20186;-83
2020/12/22 09:33:51;;;;;;;0.40;0.40;;;12.10;99.90;;;;;;5075658;28;20209;-82
2020/12/22 09:36:17;;;;;;;0.70;0.40;;;12.10;99.90;;;;;;5074209;28;20187;-82
2020/12/22 09:38:42;;;;;;;0.40;0.40;;;12.10;99.90;;;;;;5072564;28;20185;-81
2020/12/22 09:41:08;;;;;;;1.07;0.70;;;12.10;99.90;;;;;;5075179;28;20181;-82
2020/12/22 09:43:34;;;;;;;0.73;0.73;;;12.10;99.90;;;;;;5077082;28;20227;-84
2020/12/22 09:45:59;;;;;;;0.80;0.70;;;12.10;99.90;;;;;;5072360;28;20206;-80
2020/12/22 09:48:25;;;;;;;1.27;0.90;;;12.10;99.90;;;;;;5075285;28;20190;-79
2020/12/22 09:50:50;;;;;;;0.70;0.70;;;12.10;99.90;;;;;;5079562;28;20208;-83
2020/12/22 09:53:16;;;;;;;1.23;0.63;;;12.10;99.90;;;;;;5079063;28;20221;-81
2020/12/22 09:55:42;;;;;;;0.80;0.80;;;12.20;99.90;;;;;;5078455;28;20270;-82
2020/12/22 09:58:07;;;;;;;0.60;0.57;;;12.20;99.90;;;;;;5077474;28;20185;-80
2020/12/22 10:00:33;;;;;;;1.33;0.75;;;12.30;99.90;;;;;;5078839;28;20551;-80
2020/12/22 10:02:58;;;;;;;0.80;0.80;;;12.30;99.90;;;;;;5078147;28;20298;-82
2020/12/22 10:05:24;;;;;;;1.10;0.98;;;12.30;99.90;;;;;;5078625;28;20198;-80
2020/12/22 10:07:49;;;;;;;0.95;0.80;;;12.20;99.90;;;;;;5076882;28;20838;-83
2020/12/22 10:10:15;;;;;;;0.50;0.50;;;12.20;99.90;;;;;;5077182;28;20207;-78
2020/12/22 10:12:41;;;;;;;1.00;0.60;;;12.20;99.90;;;;;;5078421;28;20224;-81
2020/12/22 10:15:06;;;;;;;0.50;0.50;;;12.10;99.90;;;;;;5077141;28;20283;-81
2020/12/22 10:17:32;;;;;;;0.75;0.70;;;12.20;99.90;;;;;;5078693;28;20275;-85
2020/12/22 10:19:59;;;;;;;0.70;0.55;;;12.10;99.90;;;;;;5080939;28;20243;-83
2020/12/22 10:22:24;;;;;;;3.00;0.80;;;12.20;99.90;;;;;;5081126;28;20208;-80
2020/12/22 10:24:50;;;;;;;1.55;0.95;;;12.20;99.90;;;;;;5075756;28;20190;-77
2020/12/22 10:27:15;;;;;;;0.85;0.57;;;12.20;99.90;;;;;;5076916;28;20189;-76
2020/12/22 10:29:41;;;;;;;1.50;0.77;;;12.20;99.90;;;;;;5079468;28;20190;-76
2020/12/22 10:32:07;;;;;;;0.53;0.53;;;12.20;99.90;;;;;;5078681;28;20208;-75
2020/12/22 10:34:33;;;;;;;0.47;0.47;;;12.10;99.90;;;;;;5081002;28;20258;-83
2020/12/22 10:36:58;;;;;;;0.57;0.57;;;12.20;99.90;;;;;;5067083;28;20243;-82
2020/12/22 10:39:24;;;;;;;0.70;0.70;;;12.20;99.90;;;;;;5068869;28;20191;-80
2020/12/22 10:41:50;;;;;;;0.90;0.70;;;12.10;99.90;;;;;;5068327;28;20209;-82
2020/12/22 10:44:15;;;;;;;0.70;0.70;;;12.10;99.90;;;;;;5080780;28;20195;-83
2020/12/22 10:46:45;;;;;;;1.23;1.05;;;12.10;99.90;;;;;;5085253;28;20543;-81
2020/12/22 10:49:11;;;;;;;1.02;0.73;;;12.10;99.90;;;;;;5072584;28;20251;-80
2020/12/22 10:51:36;;;;;;;1.08;0.80;;;12.20;99.90;;;;;;5078689;28;20204;-82
2020/12/22 10:54:02;;;;;;;0.70;0.70;;;12.30;99.90;;;;;;5083149;28;20216;-81
2020/12/22 10:56:27;;;;;;;1.30;1.00;;;12.40;99.90;;;;;;5067250;28;20209;-81
2020/12/22 10:58:53;;;;;;;0.90;0.90;;;12.40;99.90;;;;;;5072254;28;20642;-82
2020/12/22 11:01:19;;;;;;;1.10;0.93;;;12.40;99.90;;;;;;5078541;28;20184;-83
2020/12/22 11:03:44;;;;;;;0.88;0.88;;;12.50;99.90;;;;;;5085165;28;20236;-83
2020/12/22 11:06:38;;;;;;;5.00;1.73;;;12.70;99.90;;;;;;5076308;28;20189;-83
2020/12/22 11:09:03;;;;;;;3.17;1.20;;;12.70;99.90;;;;;;5079352;28;20197;-81
2020/12/22 11:11:29;;;;;;;1.65;1.17;;;12.60;99.90;;;;;;5081564;28;20194;-79
2020/12/22 11:13:54;;;;;;;1.23;1.02;;;12.70;99.90;;;;;;5080547;28;20205;-82
2020/12/22 11:16:27;;;;;;;1.55;1.33;;;12.70;99.90;;;;;;5079856;28;20603;-79
2020/12/22 11:18:53;;;;;;;1.63;1.38;;;12.80;99.90;;;;;;5075450;28;20192;-80
2020/12/22 11:21:20;;;;;;;2.03;1.83;;;12.90;99.90;;;;;;5075876;28;20727;-79
2020/12/22 11:23:46;;;;;;;2.53;1.40;;;12.80;99.90;;;;;;5077320;28;20214;-79
2020/12/22 11:26:19;;;;;;;1.83;1.73;;;12.70;99.90;;;;;;5075221;28;20536;-79
2020/12/22 11:28:44;;;;;;;2.25;1.30;;;12.60;99.90;;;;;;5075785;28;20188;-79
2020/12/22 11:31:11;;;;;;;1.52;1.42;;;12.50;99.90;;;;;;5074961;28;20272;-79
2020/12/22 11:33:39;;;;;;;1.10;1.00;;;12.40;99.90;;;;;;5075808;28;20215;-79
2020/12/22 11:36:05;;;;;;;1.38;1.10;;;12.60;99.90;;;;;;5065647;28;20199;-79
2020/12/22 11:38:30;;;;;;;1.05;0.95;;;12.70;99.90;;;;;;5076984;28;20197;-78
2020/12/22 11:40:56;;;;;;;1.25;1.15;;;12.70;99.90;;;;;;5075908;28;20707;-80
2020/12/22 11:43:22;;;;;;;1.95;1.42;;;12.80;99.90;;;;;;5076328;28;20224;-78
2020/12/22 11:45:48;;;;;;;4.03;1.42;;;12.80;99.90;;;;;;5075436;28;20738;-78
2020/12/22 11:48:14;;;;;;;1.30;1.20;;;12.90;99.90;;;;;;5075014;28;20224;-78
2020/12/22 11:50:39;;;;;;;0.93;0.93;;;12.90;99.90;;;;;;5077251;28;20246;-79
2020/12/22 11:53:05;;;;;;;0.98;0.93;;;13.00;99.90;;;;;;5077229;28;20205;-79
2020/12/22 11:55:31;;;;;;;1.23;1.00;;;12.90;99.90;;;;;;5075283;28;20189;-78
2020/12/22 11:57:56;;;;;;;0.80;0.80;;;12.80;99.90;;;;;;5076345;28;20241;-80
2020/12/22 12:00:22;;;;;;;1.13;0.80;;;12.70;99.90;;;;;;5074785;28;20220;-78
2020/12/22 12:02:47;;;;;;;0.70;0.70;;;12.60;99.90;;;;;;5075492;28;20229;-80
2020/12/22 12:05:13;;;;;;;0.77;0.77;;;12.60;99.90;;;;;;5076110;28;20186;-79
2020/12/22 12:07:38;;;;;;;1.92;0.70;;;12.60;99.90;;;;;;5075968;28;20665;-78
2020/12/22 12:10:04;;;;;;;0.60;0.60;;;12.60;99.90;;;;;;5077585;28;20919;-78
2020/12/22 12:12:29;;;;;;;0.60;0.60;;;12.60;99.90;;;;;;5075540;28;20684;-80
2020/12/22 12:14:55;;;;;;;0.73;0.73;;;12.60;99.90;;;;;;5076263;28;20184;-79
2020/12/22 12:17:21;;;;;;;1.30;0.75;;;12.60;99.90;;;;;;5075779;28;20249;-78
2020/12/22 12:19:47;;;;;;;1.40;0.80;;;12.60;99.90;;;;;;5076594;28;20177;-79
2020/12/22 12:22:12;;;;;;;1.90;1.00;;;12.80;99.90;;;;;;5075432;28;20335;-78
2020/12/22 12:24:38;;;;;;;1.65;1.00;;;12.80;99.90;;;;;;5073518;28;20185;-77
2020/12/22 12:27:03;;;;;;;2.15;1.40;;;12.90;99.90;;;;;;5075617;28;20554;-79
2020/12/22 12:29:29;;;;;;;1.05;0.82;;;12.90;99.90;;;;;;5075705;28;20182;-78
2020/12/22 12:31:54;;;;;;;2.22;1.50;;;12.80;99.90;;;;;;5074700;28;20202;-78
2020/12/22 12:34:20;;;;;;;0.82;0.82;;;12.80;99.90;;;;;;5074626;28;20210;-78
2020/12/22 12:36:46;;;;;;;1.27;0.77;;;12.80;99.90;;;;;;5076452;28;20192;-80
2020/12/22 12:39:11;;;;;;;0.80;0.80;;;12.90;99.90;;;;;;5074301;28;20238;-79
2020/12/22 12:41:37;;;;;;;0.88;0.88;;;13.00;99.90;;;;;;5077190;28;20271;-78
2020/12/22 12:44:03;;;;;;;0.80;0.80;;;13.00;99.90;;;;;;5075710;28;21109;-79
2020/12/22 12:46:29;;;;;;;0.75;0.75;;;13.00;99.90;;;;;;5074277;28;20238;-79
2020/12/22 12:48:55;;;;;;;0.80;0.80;;;13.00;99.90;;;;;;5074333;28;21062;-80
2020/12/22 12:51:21;;;;;;;0.40;0.40;;;13.00;99.90;;;;;;5077397;28;20200;-78